Time;durP1;ratioP1;P1;durP2;ratioP2;P2;SDS_P1;SDS_P2;PMS_P1;PMS_P2;Temp;Humidity;BMP_temperature;BMP_pressure;BME280_temperature;BME280_humidity;BME280_pressure;Samples;Min_cycle;Max_cycle;Signal;HPM_P1;HPM_P2
2022/04/02 00:00:28;;;;;;;7.77;2.13;;;;;;;12.76;100.00;62166.16;5094731;28;20199;-71
2022/04/02 00:02:56;;;;;;;1.30;1.20;;;;;;;12.89;100.00;62180.09;5094112;28;20203;-73
2022/04/02 00:05:25;;;;;;;5.90;1.30;;;;;;;12.82;100.00;62170.03;5095351;28;20634;-73
2022/04/02 00:07:52;;;;;;;3.50;0.80;;;;;;;12.88;100.00;62171.34;5093705;28;20199;-71
2022/04/02 00:10:18;;;;;;;4.13;1.03;;;;;;;12.94;100.00;62183.44;5094695;28;20291;-70
2022/04/02 00:12:45;;;;;;;4.67;1.30;;;;;;;12.93;100.00;62181.84;5094287;28;20223;-72
2022/04/02 00:15:12;;;;;;;3.37;1.20;;;;;;;12.93;100.00;62182.38;5094396;28;20199;-71
2022/04/02 00:17:39;;;;;;;2.63;1.13;;;;;;;12.92;100.00;62180.78;5094455;28;20200;-73
2022/04/02 00:20:08;;;;;;;2.60;1.13;;;;;;;12.97;100.00;62191.78;5094348;28;20191;-72
2022/04/02 00:22:35;;;;;;;2.43;0.83;;;;;;;12.90;100.00;62181.69;5094128;28;20738;-74
2022/04/02 00:25:03;;;;;;;3.13;1.07;;;;;;;12.76;100.00;62163.59;5094115;28;20735;-72
2022/04/02 00:27:30;;;;;;;2.97;0.90;;;;;;;12.60;100.00;62142.38;5094186;28;20257;-72
2022/04/02 00:29:57;;;;;;;1.17;0.80;;;;;;;12.68;100.00;62156.06;5093773;28;20595;-73
2022/04/02 00:32:23;;;;;;;2.07;0.80;;;;;;;12.62;100.00;62154.75;5094355;28;20364;-72
2022/04/02 00:34:50;;;;;;;2.17;0.63;;;;;;;12.59;100.00;62148.97;5094057;28;20260;-72
2022/04/02 00:37:19;;;;;;;4.77;1.10;;;;;;;12.50;100.00;62141.84;5093979;28;20202;-73
2022/04/02 00:39:45;;;;;;;2.00;0.70;;;;;;;11.83;100.00;62067.41;5094032;28;20634;-72
2022/04/02 00:42:12;;;;;;;1.10;0.70;;;;;;;12.46;100.00;62135.00;5093754;28;20249;-72
2022/04/02 00:44:39;;;;;;;1.03;0.90;;;;;;;12.40;100.00;62128.03;5093839;28;20231;-72
2022/04/02 00:47:07;;;;;;;3.37;1.10;;;;;;;12.30;100.00;62117.84;5093893;28;20199;-71
2022/04/02 00:49:34;;;;;;;0.77;0.70;;;;;;;12.33;100.00;62118.50;5093346;28;20291;-72
2022/04/02 00:52:01;;;;;;;4.23;1.20;;;;;;;12.32;100.00;62119.97;5094522;28;20203;-73
2022/04/02 00:54:29;;;;;;;1.07;0.70;;;;;;;12.29;100.00;62119.31;5093746;28;20276;-71
2022/04/02 00:56:56;;;;;;;1.47;0.97;;;;;;;11.97;100.00;62079.34;5093607;28;20207;-71
2022/04/02 00:59:23;;;;;;;1.50;0.90;;;;;;;12.20;100.00;62104.53;5093354;28;20264;-72
2022/04/02 01:01:50;;;;;;;1.10;1.00;;;;;;;12.15;100.00;62101.75;5094143;28;20203;-73
2022/04/02 01:04:18;;;;;;;5.10;0.80;;;;;;;12.17;100.00;62096.22;5093270;28;20663;-73
2022/04/02 01:06:46;;;;;;;5.23;0.77;;;;;;;12.23;100.00;62112.34;5093449;28;20268;-72
2022/04/02 01:09:13;;;;;;;0.77;0.57;;;;;;;12.02;100.00;62085.25;5093089;28;20224;-72
2022/04/02 01:11:46;;;;;;;0.73;0.63;;;;;;;12.30;100.00;62114.75;5093124;28;20569;-75
2022/04/02 01:14:13;;;;;;;1.43;0.63;;;;;;;12.33;100.00;62121.06;5092110;28;20237;-72
2022/04/02 01:16:40;;;;;;;1.43;0.60;;;;;;;12.52;100.00;62141.44;5091966;28;20210;-71
2022/04/02 01:19:07;;;;;;;0.60;0.57;;;;;;;12.48;100.00;62139.72;5093059;28;20265;-71
2022/04/02 01:21:35;;;;;;;1.00;0.77;;;;;;;12.36;100.00;62121.72;5093406;28;20272;-71
2022/04/02 01:24:04;;;;;;;0.27;0.27;;;;;;;11.72;100.00;62060.72;5091735;28;20206;-72
2022/04/02 01:26:31;;;;;;;1.73;0.50;;;;;;;12.42;100.00;62130.16;5092820;28;20195;-71
2022/04/02 01:28:59;;;;;;;0.50;0.50;;;;;;;12.32;100.00;62116.88;5093283;28;20192;-71
2022/04/02 01:31:27;;;;;;;0.63;0.60;;;;;;;11.86;100.00;62068.06;5092435;28;20239;-72
2022/04/02 01:33:55;;;;;;;1.03;0.70;;;;;;;12.42;100.00;62130.72;5092970;28;20269;-71
2022/04/02 01:36:22;;;;;;;2.40;1.10;;;;;;;11.68;100.00;62053.88;5093416;28;20570;-73
2022/04/02 01:38:50;;;;;;;0.80;0.50;;;;;;;12.38;100.00;62128.44;5092517;28;20199;-73
2022/04/02 01:41:19;;;;;;;1.60;0.70;;;;;;;12.33;100.00;62120.53;5092610;28;20199;-72
2022/04/02 01:43:46;;;;;;;1.27;0.50;;;;;;;12.57;100.00;62143.72;5093186;28;20218;-71
2022/04/02 01:46:14;;;;;;;2.00;0.60;;;;;;;12.29;100.00;62114.22;5092569;28;20260;-72
2022/04/02 01:48:42;;;;;;;1.13;0.63;;;;;;;12.79;100.00;62171.91;5092554;28;20662;-72
2022/04/02 01:51:09;;;;;;;0.60;0.60;;;;;;;12.78;100.00;62165.75;5092483;28;20584;-72
2022/04/02 01:53:36;;;;;;;3.33;1.17;;;;;;;12.54;100.00;62145.59;5092504;28;20315;-72
2022/04/02 01:56:03;;;;;;;0.60;0.60;;;;;;;12.54;100.00;62143.59;5093202;28;20200;-72
2022/04/02 01:58:31;;;;;;;1.27;0.77;;;;;;;12.43;100.00;62133.81;5092525;28;20231;-71
2022/04/02 02:00:58;;;;;;;2.37;1.13;;;;;;;12.27;100.00;62117.19;5092310;28;20218;-72
2022/04/02 02:03:25;;;;;;;0.83;0.70;;;;;;;12.31;100.00;62116.38;5092335;28;20214;-72
2022/04/02 02:05:53;;;;;;;1.47;1.20;;;;;;;12.36;100.00;62126.81;5092461;28;20203;-72
2022/04/02 02:08:20;;;;;;;3.43;1.03;;;;;;;12.36;100.00;62119.16;5092313;28;20223;-74
2022/04/02 02:10:48;;;;;;;2.57;0.70;;;;;;;12.37;100.00;62125.34;5092591;28;20196;-74
2022/04/02 02:13:15;;;;;;;2.03;0.87;;;;;;;12.40;100.00;62130.56;5092729;28;20313;-72
2022/04/02 02:15:43;;;;;;;3.47;0.70;;;;;;;12.33;100.00;62117.97;5093609;28;20689;-71
2022/04/02 02:18:10;;;;;;;0.97;0.80;;;;;;;12.43;100.00;62131.78;5092410;28;20195;-73
2022/04/02 02:20:36;;;;;;;2.80;0.90;;;;;;;12.55;100.00;62144.13;5092041;28;20572;-71
2022/04/02 02:23:03;;;;;;;5.10;1.17;;;;;;;12.24;100.00;62108.84;5092120;28;20666;-73
2022/04/02 02:25:30;;;;;;;1.17;0.90;;;;;;;12.31;100.00;62116.38;5091905;28;20623;-72
2022/04/02 02:27:57;;;;;;;4.27;1.10;;;;;;;12.32;100.00;62117.44;5092258;28;20265;-71
2022/04/02 02:30:24;;;;;;;0.50;0.37;;;;;;;12.34;100.00;62117.00;5092008;28;20231;-72
2022/04/02 02:35:49;;;;;;;0.53;0.40;;;;;;;12.42;100.00;62133.25;5092012;28;20192;-72
2022/04/02 02:38:21;;;;;;;2.27;0.57;;;;;;;12.48;100.00;62136.59;5089525;28;20199;-71
2022/04/02 02:40:50;;;;;;;0.70;0.70;;;;;;;12.55;100.00;62146.69;5091830;28;20203;-72
2022/04/02 02:43:17;;;;;;;0.97;0.53;;;;;;;12.57;100.00;62146.81;5091829;28;20236;-72
2022/04/02 02:45:44;;;;;;;2.00;0.60;;;;;;;12.27;100.00;62108.97;5091869;28;20258;-71
2022/04/02 02:48:13;;;;;;;0.77;0.53;;;;;;;11.69;100.00;62054.94;5092090;28;20199;-71
2022/04/02 02:50:42;;;;;;;1.23;0.50;;;;;;;12.42;100.00;62133.25;5092002;28;20196;-70
2022/04/02 02:53:09;;;;;;;0.87;0.60;;;;;;;12.24;100.00;62108.84;5091783;28;20230;-73
2022/04/02 02:55:36;;;;;;;0.83;0.60;;;;;;;12.05;100.00;62088.47;5091805;28;20196;-72
2022/04/02 02:58:03;;;;;;;0.50;0.50;;;;;;;12.13;100.00;62096.50;5091571;28;20253;-73
2022/04/02 03:00:29;;;;;;;0.97;0.60;;;;;;;12.28;100.00;62120.78;5091542;28;20256;-72
2022/04/02 03:02:58;;;;;;;0.73;0.50;;;;;;;12.12;100.00;62100.53;5091592;28;20205;-72
2022/04/02 03:05:27;;;;;;;0.50;0.50;;;;;;;12.06;100.00;62092.09;5091278;28;20195;-72
2022/04/02 03:07:54;;;;;;;1.73;0.83;;;;;;;12.11;100.00;62094.34;5092414;28;20253;-72
2022/04/02 03:10:22;;;;;;;1.30;0.80;;;;;;;12.05;100.00;62091.00;5091569;28;20241;-72
2022/04/02 03:12:51;;;;;;;1.83;1.07;;;;;;;11.94;100.00;62078.66;5091699;28;20286;-72
2022/04/02 03:15:19;;;;;;;1.97;1.10;;;;;;;11.74;100.00;62060.84;5091402;28;20282;-71
2022/04/02 03:17:46;;;;;;;3.40;0.90;;;;;;;11.27;100.00;62009.91;5091527;28;20200;-72
2022/04/02 03:20:14;;;;;;;1.23;1.13;;;;;;;11.53;100.00;62030.13;5091741;28;20195;-71
2022/04/02 03:22:45;;;;;;;3.03;1.20;;;;;;;11.23;100.00;62005.59;5091526;28;20196;-72
2022/04/02 03:25:15;;;;;;;2.17;1.30;;;;;;;11.02;100.00;61979.06;5091720;28;20211;-71
2022/04/02 03:27:43;;;;;;;2.37;1.50;;;;;;;10.82;100.00;61957.63;5091378;28;20641;-72
2022/04/02 03:30:12;;;;;;;2.07;1.50;;;;;;;10.67;100.00;61944.09;5090342;28;20235;-71
2022/04/02 03:32:40;;;;;;;2.90;1.50;;;;;;;10.51;100.00;61921.88;5091391;28;20200;-72
2022/04/02 03:35:08;;;;;;;5.13;1.50;;;;;;;10.23;100.00;61898.97;5090077;28;20240;-71
2022/04/02 03:37:36;;;;;;;3.07;1.40;;;;;;;10.10;100.00;61880.50;5092282;28;20264;-72
2022/04/02 03:40:07;;;;;;;2.13;1.50;;;;;;;9.84;100.00;61852.66;5095073;28;20821;-72
2022/04/02 03:42:34;;;;;;;1.13;1.03;;;;;;;10.22;100.00;61893.38;5095098;28;20686;-70
2022/04/02 03:45:01;;;;;;;1.80;1.13;;;;;;;10.33;100.00;61904.59;5095113;28;20256;-72
2022/04/02 03:47:28;;;;;;;1.53;1.10;;;;;;;10.48;100.00;61923.22;5094915;28;21032;-71
2022/04/02 03:49:54;;;;;;;2.57;1.30;;;;;;;10.57;100.00;61935.94;5094816;28;20204;-73
2022/04/02 03:52:21;;;;;;;1.57;1.23;;;;;;;10.52;100.00;61925.50;5095120;28;20430;-71
2022/04/02 03:54:48;;;;;;;1.47;1.27;;;;;;;10.41;100.00;61908.59;5094769;28;20288;-72
2022/04/02 03:57:17;;;;;;;1.93;1.10;;;;;;;10.38;100.00;61910.50;5094802;28;20211;-72
2022/04/02 03:59:46;;;;;;;4.30;1.40;;;;;;;10.27;100.00;61898.72;5094809;28;20196;-71
2022/04/02 04:02:12;;;;;;;4.00;1.37;;;;;;;10.16;100.00;61884.91;5094561;28;20438;-71
2022/04/02 04:04:40;;;;;;;2.87;1.40;;;;;;;9.73;100.00;61843.41;5095105;28;20506;-72
2022/04/02 04:07:08;;;;;;;2.13;1.40;;;;;;;10.02;100.00;61874.47;5094591;28;20195;-72
2022/04/02 04:09:36;;;;;;;3.00;0.80;;;;;;;10.37;100.00;61909.41;5094767;28;20461;-72
2022/04/02 04:12:04;;;;;;;2.70;1.30;;;;;;;10.09;100.00;61874.31;5094674;28;20200;-72
2022/04/02 04:14:32;;;;;;;5.27;1.70;;;;;;;10.60;100.00;61933.53;5094502;28;20534;-71
2022/04/02 04:16:58;;;;;;;5.10;1.80;;;;;;;10.55;100.00;61928.69;5094340;28;20977;-71
2022/04/02 04:19:26;;;;;;;1.90;1.40;;;;;;;10.70;100.00;61947.31;5094832;28;20199;-71
2022/04/02 04:21:53;;;;;;;1.23;1.13;;;;;;;10.83;100.00;61958.16;5094532;28;20206;-72
2022/04/02 04:24:20;;;;;;;3.03;1.30;;;;;;;10.30;100.00;61907.03;5093949;28;20241;-71
2022/04/02 04:26:47;;;;;;;3.33;0.90;;;;;;;10.83;100.00;61961.25;5094049;28;20288;-71
2022/04/02 04:29:13;;;;;;;4.93;1.50;;;;;;;10.71;100.00;61950.94;5094081;28;20739;-72
2022/04/02 04:31:42;;;;;;;3.07;2.30;;;;;;;10.45;100.00;61917.97;5094062;28;20227;-70
2022/04/02 04:34:11;;;;;;;2.30;1.70;;;;;;;10.51;100.00;61923.88;5094732;28;20231;-71
2022/04/02 04:36:37;;;;;;;4.03;1.50;;;;;;;10.35;100.00;61907.28;5094149;27;20961;-71
2022/04/02 04:39:05;;;;;;;5.73;1.30;;;;;;;10.61;100.00;61942.78;5093743;28;20239;-71
2022/04/02 04:41:32;;;;;;;3.37;1.30;;;;;;;10.70;100.00;61944.78;5093517;28;20196;-71
2022/04/02 04:43:59;;;;;;;2.87;1.73;;;;;;;10.88;100.00;61964.06;5093610;28;20203;-72
2022/04/02 04:46:26;;;;;;;3.97;1.30;;;;;;;10.90;100.00;61961.13;5094292;28;20283;-71
2022/04/02 04:48:54;;;;;;;2.00;1.40;;;;;;;10.83;100.00;61958.69;5093565;28;20465;-70
2022/04/02 04:51:23;;;;;;;1.97;1.43;;;;;;;11.26;100.00;62001.69;5093494;28;20735;-72
2022/04/02 04:53:50;;;;;;;4.57;1.80;;;;;;;11.26;100.00;62008.81;5093568;28;20257;-72
2022/04/02 04:56:17;;;;;;;6.30;1.90;;;;;;;11.15;100.00;61991.94;5093603;28;20195;-71
2022/04/02 04:58:43;;;;;;;4.83;1.00;;;;;;;11.46;100.00;62032.81;5093233;28;20196;-72
2022/04/02 05:01:10;;;;;;;1.87;1.10;;;;;;;11.71;100.00;62057.09;5092386;28;20563;-71
2022/04/02 05:03:37;;;;;;;39.30;6.37;;;;;;;11.96;100.00;62081.34;5093620;28;20199;-72
2022/04/02 05:06:06;;;;;;;16.93;1.87;;;;;;;12.17;100.00;62100.78;5093393;28;20257;-71
2022/04/02 05:08:33;;;;;;;8.23;1.80;;;;;;;12.43;100.00;62126.69;5091895;28;20223;-71
2022/04/02 05:11:01;;;;;;;2.17;1.33;;;;;;;12.61;100.00;62148.56;5093139;28;20198;-72
2022/04/02 05:13:28;;;;;;;4.20;1.20;;;;;;;12.53;100.00;62139.97;5092926;28;20296;-71
2022/04/02 05:15:55;;;;;;;3.50;1.47;;;;;;;12.63;100.00;62150.16;5092924;28;20716;-71
2022/04/02 05:18:22;;;;;;;6.43;1.87;;;;;;;12.74;100.00;62167.63;5093211;28;20257;-71
2022/04/02 05:20:49;;;;;;;12.70;1.97;;;;;;;12.92;100.00;62185.88;5093306;28;20206;-71
2022/04/02 05:23:17;;;;;;;8.00;1.57;;;;;;;13.11;100.00;62198.63;5093105;28;20202;-71
2022/04/02 05:25:44;;;;;;;4.57;1.47;;;;;;;13.34;100.00;62225.91;5092973;28;20199;-73
2022/04/02 05:28:11;;;;;;;3.27;1.03;;;;;;;11.92;100.00;62079.63;5093139;28;20195;-70
2022/04/02 05:30:38;;;;;;;1.70;0.60;;;;;;;13.56;100.00;62254.66;5092663;28;20284;-71
2022/04/02 05:33:06;;;;;;;3.57;0.70;;;;;;;13.72;100.00;62264.16;5092771;28;20209;-72
2022/04/02 05:35:32;;;;;;;0.60;0.60;;;;;;;13.55;100.00;62254.09;5092665;28;20736;-72
2022/04/02 05:37:59;;;;;;;5.60;2.83;;;;;;;13.65;100.00;62261.75;5092810;28;20252;-72
2022/04/02 05:40:27;;;;;;;2.60;1.23;;;;;;;13.19;100.00;62215.44;5092566;28;20199;-70
2022/04/02 05:42:54;;;;;;;5.00;1.00;;;;;;;13.00;100.00;62191.91;5092556;28;20731;-71
2022/04/02 05:45:21;;;;;;;1.67;1.00;;;;;;;13.33;100.00;62227.91;5092847;28;20632;-71
2022/04/02 05:47:50;;;;;;;1.50;0.80;;;;;;;13.50;100.00;62243.09;5092502;28;20681;-71
2022/04/02 05:50:18;;;;;;;2.23;1.10;;;;;;;13.29;100.00;62223.06;5092798;28;20206;-72
2022/04/02 05:52:48;;;;;;;3.63;1.20;;;;;;;13.69;100.00;62263.50;5092733;28;20196;-73
2022/04/02 05:55:17;;;;;;;2.13;1.40;;;;;;;14.14;100.00;62311.88;5092313;28;20259;-72
2022/04/02 05:57:46;;;;;;;3.83;1.30;;;;;;;14.44;100.00;62343.06;5098962;28;20195;-72
2022/04/02 06:00:16;;;;;;;4.23;3.00;;;;;;;14.45;100.00;62341.59;5094926;28;20724;-71
2022/04/02 06:02:44;;;;;;;2.00;1.80;;;;;;;14.32;100.00;62325.56;5092398;28;20290;-72
2022/04/02 06:05:12;;;;;;;2.97;1.10;;;;;;;14.44;100.00;62343.06;5092426;28;20257;-72
2022/04/02 06:07:39;;;;;;;1.60;0.80;;;;;;;14.87;100.00;62389.31;5092690;28;20264;-71
2022/04/02 06:10:09;;;;;;;2.30;0.80;;;;;;;14.99;100.00;62397.09;5092356;28;20220;-71
2022/04/02 06:12:36;;;;;;;0.60;0.60;;;;;;;15.32;100.00;62442.88;5092183;28;20206;-72
2022/04/02 06:15:05;;;;;;;1.43;0.70;;;;;;;15.26;100.00;62433.84;5092273;28;20219;-71
2022/04/02 06:17:32;;;;;;;6.10;2.00;;;;;;;15.13;100.00;62417.28;5092146;28;20316;-71
2022/04/02 06:19:58;;;;;;;2.43;0.90;;;;;;;15.24;100.00;62429.13;5091534;28;20199;-72
2022/04/02 06:22:25;;;;;;;1.63;1.13;;;;;;;15.63;100.00;62471.13;5092107;28;20199;-71
2022/04/02 06:24:52;;;;;;;1.37;0.97;;;;;;;15.90;100.00;62500.19;5092244;28;20204;-71
2022/04/02 06:27:18;;;;;;;1.17;0.90;;;;;;;16.22;100.00;62534.13;5092006;28;20276;-72
2022/04/02 06:29:45;;;;;;;1.20;0.90;;;;;;;16.69;100.00;62581.66;5092109;28;20626;-73
2022/04/02 06:32:13;;;;;;;2.73;1.30;;;;;;;17.01;100.00;62616.16;5091625;28;20203;-71
2022/04/02 06:34:40;;;;;;;1.67;0.90;;;;;;;16.73;100.00;62588.56;5091610;28;20223;-71
2022/04/02 06:37:07;;;;;;;3.67;1.43;;;;;;;16.60;100.00;62574.56;5091786;28;20238;-71
2022/04/02 06:39:35;;;;;;;3.77;1.30;;;;;;;16.63;100.00;62580.34;5091750;28;20252;-71
2022/04/02 06:42:02;;;;;;;6.53;1.23;;;;;;;17.06;100.00;62618.44;5091883;28;20629;-71
2022/04/02 06:44:29;;;;;;;5.47;1.00;;;;;;;16.89;100.00;62608.91;5091841;28;20199;-72
2022/04/02 06:46:57;;;;;;;1.53;1.20;;;;;;;16.37;100.00;62544.59;5091747;28;20669;-71
2022/04/02 06:49:25;;;;;;;2.13;1.33;;;;;;;16.67;100.00;62582.09;5092523;28;20218;-71
2022/04/02 06:51:53;;;;;;;2.17;1.53;;;;;;;16.77;100.00;62590.28;5091578;28;20731;-72
2022/04/02 06:54:20;;;;;;;2.97;1.10;;;;;;;16.71;100.00;62586.94;5091689;28;20770;-72
2022/04/02 06:56:48;;;;;;;1.67;0.90;;;;;;;17.00;100.00;62620.25;5091650;28;20199;-73
2022/04/02 06:59:15;;;;;;;8.27;1.23;;;;;;;16.89;100.00;62605.81;5091687;28;20291;-72
2022/04/02 07:01:43;;;;;;;1.50;0.90;;;;;;;16.31;100.00;62543.28;5091672;28;20200;-71
2022/04/02 07:04:11;;;;;;;3.67;1.00;;;;;;;16.40;100.00;62550.41;5091461;28;20200;-70
2022/04/02 07:06:44;;;;;;;2.30;0.87;;;;;;;16.28;100.00;62540.06;5092081;28;20191;-72
2022/04/02 07:09:11;;;;;;;1.47;0.97;;;;;;;16.16;100.00;62527.66;5090823;28;20254;-72
2022/04/02 07:11:38;;;;;;;1.00;0.90;;;;;;;16.52;100.00;62569.03;5090794;28;20202;-71
2022/04/02 07:14:05;;;;;;;4.90;2.73;;;;;;;16.64;100.00;62576.28;5093880;28;20298;-72
2022/04/02 07:16:31;;;;;;;1.47;0.83;;;;;;;16.84;100.00;62600.41;5094942;28;20204;-71
2022/04/02 07:19:00;;;;;;;3.73;1.20;;;;;;;17.04;100.00;62618.84;5095104;28;20199;-72
2022/04/02 07:21:28;;;;;;;2.83;1.00;;;;;;;17.57;99.99;62676.03;5095122;28;20191;-72
2022/04/02 07:23:57;;;;;;;3.90;0.93;;;;;;;17.92;94.81;62715.81;5095179;28;20195;-72
2022/04/02 07:26:25;;;;;;;0.80;0.80;;;;;;;17.68;80.01;62693.59;5094938;28;20199;-72
2022/04/02 07:28:54;;;;;;;4.10;1.10;;;;;;;17.53;78.13;62677.41;5095195;28;20257;-72
2022/04/02 07:31:21;;;;;;;7.13;1.10;;;;;;;18.11;73.13;62733.75;5095578;28;20232;-71
2022/04/02 07:33:48;;;;;;;3.63;0.80;;;;;;;17.96;78.29;62722.72;5095340;28;20249;-71
2022/04/02 07:36:21;;;;;;;5.03;1.00;;;;;;;17.89;80.93;62713.13;5094698;28;20245;-72
2022/04/02 07:38:56;;;;;;;2.03;0.80;;;;;;;17.31;85.90;62645.94;5095190;28;20592;-72
2022/04/02 07:41:32;;;;;;;1.90;0.83;;;;;;;17.13;91.08;62636.81;5094125;28;20255;-72
2022/04/02 07:44:03;;;;;;;5.50;1.13;;;;;;;17.42;100.00;62668.09;5095658;28;20195;-72
2022/04/02 07:46:33;;;;;;;1.80;1.00;;;;;;;17.21;90.07;62637.72;5095117;28;20248;-71
2022/04/02 07:49:03;;;;;;;1.90;0.80;;;;;;;17.07;85.35;62627.78;5094795;28;20225;-70
2022/04/02 07:51:31;;;;;;;1.30;1.20;;;;;;;17.51;89.24;62672.66;5095149;28;20200;-72
2022/04/02 07:54:03;;;;;;;5.47;1.50;;;;;;;17.53;96.71;62674.81;5094875;28;20586;-72
2022/04/02 07:56:36;;;;;;;1.93;1.40;;;;;;;17.45;100.00;62663.59;5094469;28;20661;-73
2022/04/02 07:59:08;;;;;;;3.43;1.30;;;;;;;16.81;98.07;62597.19;5094703;28;20351;-71
2022/04/02 08:01:36;;;;;;;2.17;1.40;;;;;;;16.64;100.00;62579.38;5094137;28;20209;-71
2022/04/02 08:04:07;;;;;;;14.30;1.73;;;;;;;17.10;100.00;62630.47;5094482;28;20199;-72
2022/04/02 08:06:34;;;;;;;7.90;2.17;;;;;;;17.07;100.00;62625.19;5094172;28;20261;-72
2022/04/02 08:09:01;;;;;;;1.20;1.10;;;;;;;17.42;93.66;62662.41;5094036;28;20631;-71
2022/04/02 08:11:30;;;;;;;3.83;1.40;;;;;;;17.01;91.26;62615.63;5093740;28;20234;-71
2022/04/02 08:13:58;;;;;;;3.33;1.20;;;;;;;16.89;98.73;62606.34;5094057;28;20241;-71
2022/04/02 08:16:27;;;;;;;3.40;1.90;;;;;;;17.13;100.00;62633.69;5094014;28;20223;-71
2022/04/02 08:18:56;;;;;;;4.87;2.27;;;;;;;16.61;100.00;62575.63;5094585;28;20253;-70
2022/04/02 08:21:24;;;;;;;5.10;1.03;;;;;;;16.65;91.88;62579.94;5094223;28;20248;-70
2022/04/02 08:23:50;;;;;;;4.27;2.50;;;;;;;15.86;96.63;62495.34;5093508;28;20658;-71
2022/04/02 08:26:37;;;;;;;8.03;2.20;;;;;;;16.45;97.58;62563.50;5093867;28;20196;-71
2022/04/02 08:29:19;;;;;;;3.33;1.50;;;;;;;16.66;92.38;62581.03;5093739;28;20200;-72
2022/04/02 08:32:09;;;;;;;1.60;1.50;;;;;;;16.96;94.63;62608.22;5092977;28;20240;-71
2022/04/02 08:34:56;;;;;;;5.77;2.53;;;;;;;17.03;94.87;62620.88;5095641;28;20203;-72
2022/04/02 08:37:29;;;;;;;6.23;1.60;;;;;;;16.98;97.95;62615.50;5093796;28;20203;-71
2022/04/02 08:40:08;;;;;;;3.93;1.23;;;;;;;16.94;92.87;62610.66;5094400;28;20200;-71
2022/04/02 08:43:02;;;;;;;1.53;0.90;;;;;;;16.62;85.85;62577.22;5094485;28;20617;-72
2022/04/02 08:45:32;;;;;;;2.33;0.90;;;;;;;16.42;91.20;62555.13;5093564;28;20199;-74
2022/04/02 08:48:21;;;;;;;4.07;1.33;;;;;;;16.37;93.50;62547.16;5093523;28;20208;-72
2022/04/02 08:50:54;;;;;;;3.07;1.40;;;;;;;16.41;96.53;62554.06;5093443;28;20206;-72
2022/04/02 08:53:34;;;;;;;2.63;1.47;;;;;;;16.15;100.00;62526.03;5093573;28;20626;-71
2022/04/02 08:56:03;;;;;;;2.90;1.20;;;;;;;16.26;99.98;62535.34;5093423;28;20242;-72
2022/04/02 08:59:04;;;;;;;6.47;1.27;;;;;;;16.16;98.54;62524.56;5093146;28;20227;-72
2022/04/02 09:01:39;;;;;;;4.57;1.17;;;;;;;16.25;86.47;62536.81;5093337;28;20195;-71
2022/04/02 09:04:43;;;;;;;4.90;1.10;;;;;;;16.24;85.60;62535.75;5093722;28;20303;-71
2022/04/02 09:07:48;;;;;;;5.53;1.20;;;;;;;16.00;93.70;62508.41;5093975;28;20222;-72
2022/04/02 09:10:54;;;;;;;6.40;1.30;;;;;;;15.81;85.43;62487.41;5075401;28;20219;-72
2022/04/02 09:13:48;;;;;;;3.33;1.23;;;;;;;15.95;80.55;62505.03;5093032;28;20244;-71
2022/04/02 09:16:22;;;;;;;5.57;1.47;;;;;;;15.58;86.65;62465.19;5093399;28;20220;-72
2022/04/02 09:19:11;;;;;;;2.97;1.40;;;;;;;15.59;95.92;62469.41;5093918;28;20195;-71
2022/04/02 09:21:57;;;;;;;4.07;1.47;;;;;;;15.32;100.00;62440.31;5094154;28;20200;-71
2022/04/02 09:24:41;;;;;;;6.83;1.03;;;;;;;15.17;100.00;62422.13;5092959;28;20199;-71
2022/04/02 09:27:47;;;;;;;4.30;1.33;;;;;;;15.44;100.00;62450.13;5093025;28;20327;-72
2022/04/02 09:30:27;;;;;;;5.37;1.57;;;;;;;15.33;100.00;62446.53;5048577;28;20231;-72
2022/04/02 09:33:15;;;;;;;5.57;1.10;;;;;;;15.32;100.00;62437.19;5091636;28;20221;-72
2022/04/02 09:36:03;;;;;;;3.53;1.30;;;;;;;15.31;100.00;62436.66;5092014;28;20276;-72
2022/04/02 09:39:02;;;;;;;1.50;1.13;;;;;;;15.44;100.00;62445.53;5092568;28;20328;-72
2022/04/02 09:41:55;;;;;;;9.07;1.40;;;;;;;15.34;100.00;62441.91;5088272;28;20195;-71
2022/04/02 09:44:52;;;;;;;2.57;1.00;;;;;;;15.83;100.00;62487.53;5092821;28;20240;-71
2022/04/02 09:47:21;;;;;;;4.83;1.20;;;;;;;16.12;100.00;62522.81;5091805;28;20297;-71
2022/04/02 09:50:07;;;;;;;4.07;1.73;;;;;;;17.40;100.00;62660.78;5092486;28;20200;-72
2022/04/02 09:52:40;;;;;;;6.43;1.40;;;;;;;17.79;84.30;62699.22;5092529;28;20650;-72
2022/04/02 09:55:09;;;;;;;2.37;1.17;;;;;;;17.41;81.32;62656.72;5092217;28;20200;-72
2022/04/02 09:57:49;;;;;;;6.47;2.10;;;;;;;18.01;80.34;62722.97;5092271;28;20588;-71
2022/04/02 10:00:17;;;;;;;3.03;1.47;;;;;;;17.93;82.69;62716.91;5092760;28;20200;-71
2022/04/02 10:03:00;;;;;;;4.47;2.67;;;;;;;18.32;84.96;62753.81;5092056;28;20202;-71
2022/04/02 10:05:37;;;;;;;3.73;1.90;;;;;;;18.28;85.32;62754.66;5092063;28;20290;-71
2022/04/02 10:08:12;;;;;;;5.23;2.50;;;;;;;18.20;85.46;62741.41;5092535;28;20209;-71
2022/04/02 10:10:42;;;;;;;1.43;1.33;;;;;;;17.23;85.58;62642.44;5092109;28;20195;-73
2022/04/02 10:13:13;;;;;;;5.30;3.03;;;;;;;17.83;89.41;62706.66;5092043;28;20256;-71
2022/04/02 10:15:43;;;;;;;10.43;5.90;;;;;;;18.41;88.79;62766.13;5092893;28;20303;-72
2022/04/02 10:18:12;;;;;;;1.93;1.60;;;;;;;17.74;72.78;62696.94;5091729;28;20310;-72
2022/04/02 10:20:40;;;;;;;3.67;1.80;;;;;;;17.59;70.26;62683.88;5092395;28;20245;-71
2022/04/02 10:23:15;;;;;;;3.23;1.97;;;;;;;17.64;67.86;62684.13;5091868;28;20581;-71
2022/04/02 10:25:56;;;;;;;4.47;1.20;;;;;;;17.84;67.05;62707.19;5092002;28;20203;-70
2022/04/02 10:28:30;;;;;;;5.13;1.80;;;;;;;17.92;65.66;62710.66;5092466;28;20191;-71
2022/04/02 10:30:58;;;;;;;4.03;1.53;;;;;;;17.68;64.95;62685.88;5092182;28;20313;-71
2022/04/02 10:33:29;;;;;;;3.47;1.53;;;;;;;17.31;68.06;62645.94;5091956;28;20207;-72
2022/04/02 10:35:58;;;;;;;3.70;2.30;;;;;;;17.70;70.74;62690.59;5091721;28;20223;-72
2022/04/02 10:38:34;;;;;;;16.10;7.57;;;;;;;18.15;65.77;62735.50;5091998;28;20207;-71
2022/04/02 10:41:10;;;;;;;0.87;0.87;;;;;;;17.50;64.46;62671.06;5093291;28;20748;-73
2022/04/02 10:43:44;;;;;;;0.80;0.80;;;;;;;17.64;64.50;62686.69;5092056;28;20628;-71
2022/04/02 10:46:11;;;;;;;2.90;0.97;;;;;;;17.38;65.91;62658.09;5091912;28;20255;-71
2022/04/02 10:48:50;;;;;;;1.33;0.90;;;;;;;17.53;66.28;62671.72;5096005;28;20665;-71
2022/04/02 10:51:22;;;;;;;0.60;0.60;;;;;;;16.92;66.60;62609.03;5096361;28;20275;-73
2022/04/02 10:53:59;;;;;;;1.40;0.90;;;;;;;18.05;66.79;62729.84;5096058;28;20662;-72
2022/04/02 10:56:33;;;;;;;2.30;1.10;;;;;;;18.14;64.54;62739.56;5096155;28;20370;-71
2022/04/02 10:59:00;;;;;;;0.70;0.70;;;;;;;17.82;58.44;62702.44;5095617;28;20579;-71
2022/04/02 11:01:27;;;;;;;2.77;0.67;;;;;;;17.34;58.38;62654.31;5095539;28;20207;-72
2022/04/02 11:03:56;;;;;;;1.17;0.77;;;;;;;16.30;60.60;62539.63;5095432;28;20628;-72
2022/04/02 11:06:45;;;;;;;1.10;0.73;;;;;;;16.37;68.59;62549.75;5096022;28;20202;-71
2022/04/02 11:09:29;;;;;;;1.27;0.90;;;;;;;15.87;87.24;62486.69;5095584;28;20299;-71
2022/04/02 11:12:02;;;;;;;0.97;0.90;;;;;;;15.26;100.00;62428.72;5096328;28;20203;-74
2022/04/02 11:14:38;;;;;;;3.50;1.23;;;;;;;14.80;100.00;62376.66;5095266;28;20200;-73
2022/04/02 11:17:05;;;;;;;2.63;1.10;;;;;;;14.76;100.00;62377.47;5095582;28;20238;-72
2022/04/02 11:22:26;;;;;;;1.80;1.43;;;;;;;14.57;100.00;62357.56;5095866;28;20198;-73
2022/04/02 11:25:01;;;;;;;3.83;1.53;;;;;;;14.68;100.00;62366.84;5095719;28;20285;-72
2022/04/02 11:27:29;;;;;;;6.03;2.03;;;;;;;14.83;100.00;62382.44;5094224;28;20602;-73
2022/04/02 11:30:04;;;;;;;2.17;1.67;;;;;;;14.68;100.00;62374.00;5095208;28;20200;-73
2022/04/02 11:32:40;;;;;;;2.33;1.60;;;;;;;15.54;100.00;62458.88;5095202;28;20252;-71
2022/04/02 11:35:13;;;;;;;2.27;0.97;;;;;;;15.25;100.00;62432.78;5095138;28;20286;-72
2022/04/02 11:38:02;;;;;;;1.20;1.10;;;;;;;14.82;100.00;62383.94;5095223;28;20227;-71
2022/04/02 11:40:31;;;;;;;6.43;2.20;;;;;;;14.96;100.00;62396.44;5095501;28;20196;-71
2022/04/02 11:43:03;;;;;;;1.70;1.40;;;;;;;14.13;100.00;62308.22;5095038;28;20211;-71
2022/04/02 11:45:31;;;;;;;2.10;1.70;;;;;;;15.12;100.00;62416.22;5094895;28;20282;-71
2022/04/02 11:48:08;;;;;;;2.10;1.27;;;;;;;14.86;100.00;62383.66;5094876;28;20204;-72